Here is the Quick Look data you requested

The Data originates at the National Weather Service, and is made available here by the UAlbany Department of Atmospheric and Environmental Sciences

Surface Observations

KWWD 190755Z AUTO 36006KT 10SM OVC040 01/M06 A3046 RMK AO2 SLP317 T00061061
 FZRANO=
KWAL 190754Z AUTO 33009KT 10SM CLR 02/M07 A3046 RMK AO2 SLP312 T00171067=
KDCA 190752Z 35010KT 10SM FEW160 01/M07 A3049 RMK AO2 SLP324 T00061067=
KMIV 190754Z AUTO 30003KT 10SM BKN041 M02/M08 A3045 RMK AO2 SLP310 T10171078
 TSNO=
KMFV 190755Z AUTO 35012G17KT 10SM CLR 03/M04 A3045 RMK AO2 T00291040=
KORF 190751Z 35013G20KT 10SM CLR 05/M04 A3044 RMK AO2 SLP305 T00501044=
KAKQ 190754Z AUTO 36004KT 10SM CLR 04/M03 A3046 RMK AO2 SLP316 T00391033=
KDOV 190756Z AUTO 31011KT 10SM FEW044 00/M08 A3046 RMK AO2 SLP318 T10011078 $=
KGED 190754Z AUTO 32006KT 10SM CLR 02/M07 A3046 RMK AO2 SLP316 T00171072 $=
KILG 190751Z AUTO 33012KT 10SM CLR M01/M08 A3046 RMK AO2 SLP316 T10111083=
KADW 190756Z AUTO 32011G19KT 10SM CLR 00/M07 A3046 RMK AO2 SLP324 T10031071 $=
KBWI 190754Z 34003KT 10SM SCT250 M01/M08 A3048 RMK AO2 SLP322 T10111078=
KDMH 190754Z AUTO 00/M09 A3048 RMK AO1 SLP320 T00001089=
KHGR 190753Z AUTO 32012KT 10SM CLR M03/M11 A3048 RMK AO2 SLP340 T10331106=
KNHK 190752Z AUTO 35012KT 10SM CLR 02/M06 A3047 RMK AO2 SLP319 T00171056 $=
KOXB 190753Z AUTO 33009KT 10SM CLR 01/M06 A3046 RMK AO2 SLP313 T00061061=
KSBY 190754Z AUTO 32008KT 10SM CLR 00/M06 A3046 RMK AO2 SLP317 T00001056 $=